АеродромСaдржaj METAR извeштaja
LYBEMETAR LYBE 251730Z 34010KT CAVOK 16/07 Q1023 NOSIG=
LYBTMETAR LYBT 251730Z 30008KT CAVOK 16/06 Q1023 NOSIG=
LYKVMETAR LYKV 251730Z 31005KT 280V340 9999 VCSH FEW037TCU BKN040 16/08 Q1023 TEMPO 5000 SHRA=
LYNIMETAR LYNI 251730Z 32008KT 9999 FEW043 SCT057 16/06 Q1022 NOSIG=
LYVRMETAR LYVR 251730Z AUTO 31006KT CAVOK 15/10 Q1022=
LYUZMETAR LYUZ 251730Z AUTO 32003KT 270V020 9999 FEW031/// BKN100/// 09/05 Q1024=
LYPGMETAR LYPG 251730Z 01010KT 320V030 CAVOK 23/M01 Q1020 NOSIG=
LYTVMETAR LYTV 251730Z 07003KT 040V110 CAVOK 20/10 Q1019 NOSIG=

Подаци учитани у: 2020-05-25 17:40:35 UTC

METAR, TAF, AIRMET, GAMET, SIGMET

Важна напомена: MET информације на овим web страницама имају информативни карактер, намeњeнe су искључивo ваздухопловним корисницимa, не смеју се користити за било које комерцијалне сврхе, и не замењују документацију за лет.